This is the latest recevied weather packets stored in our database for station/object WA9AFM-10. If no packets are shown the sender has not sent any weather packets the latest 10 day(s).
| Time | Temp. | Humidity | Pressure | Rain* | Wind** | Luminosity | Snow |
|---|---|---|---|---|---|---|---|
| 1777841474 | 29.44° C | 29% | 1008.7 hPa | 0 mm | - | - | - |
| 1777839673 | 30° C | 28% | 1009.2 hPa | 0 mm | - | - | - |
| 1777836074 | 29.44° C | 28% | 1010.2 hPa | 0 mm | - | - | - |
| 1777834273 | 29.44° C | 28% | 1010.7 hPa | 0 mm | - | - | - |
| 1777832473 | 28.89° C | 31% | 1011 hPa | 0 mm | - | - | - |
| 1777830673 | 28.33° C | 33% | 1011.6 hPa | 0 mm | - | - | - |
| 1777828874 | 27.78° C | 36% | 1012.1 hPa | 0 mm | - | - | - |
| 1777827073 | 26.67° C | 40% | 1012.5 hPa | 0 mm | - | - | - |
| 1777825274 | 25° C | 43% | 1012.5 hPa | 0 mm | - | - | - |
| 1777823475 | 23.33° C | 46% | 1012.5 hPa | 0 mm | - | - | - |
| 1777821673 | 21.67° C | 49% | 1012.7 hPa | 0 mm | - | - | - |
| 1777819873 | 20° C | 52% | 1012.8 hPa | 0 mm | - | - | - |
| 1777818073 | 18.33° C | 59% | 1012.9 hPa | 0 mm | - | - | - |
| 1777816274 | 16.11° C | 70% | 1012.9 hPa | 0 mm | - | - | - |
| 1777812896 | 12.78° C | 78% | 1012.9 hPa | 0 mm | - | - | - |
| 1777812672 | 12.78° C | 78% | 1012.9 hPa | 0 mm | - | - | - |
| 1777810873 | 11.67° C | 81% | 1012.6 hPa | 0 mm | - | - | - |
| 1777809074 | 11.11° C | 81% | 1012.4 hPa | 0 mm | - | - | - |
| 1777807274 | 11.11° C | 78% | 1012.5 hPa | 0 mm | - | - | - |
| 1777805473 | 11.67° C | 76% | 1012.5 hPa | 0 mm | - | - | - |
| 1777803673 | 12.22° C | 72% | 1012.8 hPa | 0 mm | - | - | - |
| 1777801874 | 13.33° C | 69% | 1013 hPa | 0 mm | - | - | - |
| 1777800074 | 13.33° C | 67% | 1013.4 hPa | 0 mm | - | - | - |
| 1777798273 | 13.33° C | 66% | 1013.6 hPa | 0 mm | - | - | - |
| 1777796473 | 13.89° C | 67% | 1014 hPa | 0 mm | - | - | - |
* Rain latest hour (hover to see other rain measurements)
** Current wind speed in m/s (hover to see current wind gust speed)